createdAt,value
2019-05-07T00:01:03.973Z,100153.31
2019-05-07T00:06:09.114Z,100138.27
2019-05-07T00:11:13.836Z,100130.88
2019-05-07T00:16:17.997Z,100129.30
2019-05-07T00:21:23.586Z,100131.45
2019-05-07T00:26:28.491Z,100119.51
2019-05-07T00:31:33.764Z,100117.58
2019-05-07T00:36:38.477Z,100105.55
2019-05-07T00:41:42.856Z,100099.23
2019-05-07T00:46:47.206Z,100088.94
2019-05-07T00:51:53.352Z,100073.39
2019-05-07T00:56:59.146Z,100063.72
2019-05-07T01:02:04.964Z,100050.94
2019-05-07T01:07:12.207Z,100037.23
2019-05-07T01:12:17.912Z,100033.80
2019-05-07T01:17:24.305Z,100033.00
2019-05-07T01:32:53.736Z,100016.92
2019-05-07T01:37:58.444Z,100009.40
2019-05-07T01:43:02.960Z,100007.08
2019-05-07T01:48:07.673Z,100005.04
2019-05-07T01:53:12.358Z,100000.83
2019-05-07T01:58:16.657Z,99993.75
2019-05-07T02:03:23.041Z,99985.24
2019-05-07T02:08:26.899Z,99977.53
2019-05-07T02:13:31.148Z,99972.33
2019-05-07T02:18:35.309Z,99978.54
2019-05-07T02:23:39.415Z,99968.60
2019-05-07T02:28:43.555Z,99954.56
2019-05-07T02:33:48.150Z,99950.19
2019-05-07T02:38:53.226Z,99933.22
2019-05-07T02:44:00.039Z,99930.77
2019-05-07T02:49:03.504Z,99935.89
2019-05-07T02:54:07.753Z,99926.63
2019-05-07T02:59:13.735Z,99919.55
2019-05-07T03:04:18.297Z,99919.09
2019-05-07T03:09:22.898Z,99909.76
2019-05-07T03:14:27.097Z,99910.42
2019-05-07T03:19:33.176Z,99894.54
2019-05-07T03:24:37.319Z,99884.59
2019-05-07T03:29:44.268Z,99874.34
2019-05-07T03:34:47.934Z,99869.96
2019-05-07T03:39:53.760Z,99862.18
2019-05-07T03:44:59.388Z,99851.42
2019-05-07T03:50:04.100Z,99849.50
2019-05-07T03:55:09.090Z,99849.91
2019-05-07T04:00:14.297Z,99835.79
2019-05-07T04:05:22.929Z,99831.36
2019-05-07T04:10:26.044Z,99834.09
2019-05-07T04:15:33.066Z,99828.58
2019-05-07T04:20:36.777Z,99823.25
2019-05-07T04:25:43.574Z,99815.23
2019-05-07T04:30:46.888Z,99797.98
2019-05-07T04:35:53.818Z,99790.42
2019-05-07T04:40:57.129Z,99780.97
2019-05-07T04:46:03.189Z,99788.73
2019-05-07T04:51:07.251Z,99776.95
2019-05-07T04:56:14.022Z,99741.42
2019-05-07T05:01:17.710Z,99771.14
2019-05-07T05:06:24.196Z,99775.31
2019-05-07T05:11:28.012Z,99761.70
2019-05-07T05:16:32.741Z,99757.44
2019-05-07T05:21:37.735Z,99749.84
2019-05-07T05:26:42.034Z,99748.44
2019-05-07T05:31:46.549Z,99736.87
2019-05-07T05:36:53.176Z,99729.19
2019-05-07T05:41:57.486Z,99725.22
2019-05-07T05:47:02.376Z,99724.23
2019-05-07T05:52:07.082Z,99716.73
2019-05-07T05:57:12.255Z,99701.22
2019-05-07T06:02:16.774Z,99700.36
2019-05-07T06:07:22.666Z,99692.20
2019-05-07T06:12:27.066Z,99694.36
2019-05-07T06:17:32.101Z,99694.31
2019-05-07T06:22:36.553Z,99684.27
2019-05-07T06:27:41.786Z,99680.84
2019-05-07T06:32:46.154Z,99673.86
2019-05-07T06:37:52.177Z,99674.91
2019-05-07T06:42:56.848Z,99672.73
2019-05-07T06:48:02.975Z,99673.13
2019-05-07T06:53:06.989Z,99669.95
2019-05-07T06:58:12.334Z,99665.23
2019-05-07T07:03:16.715Z,99660.33
2019-05-07T07:08:22.967Z,99650.00
2019-05-07T07:13:28.535Z,99644.58
2019-05-07T07:18:33.026Z,99635.51
2019-05-07T07:23:37.203Z,99635.10
2019-05-07T07:28:42.950Z,99636.31
2019-05-07T07:33:47.601Z,99625.84
2019-05-07T07:38:52.697Z,99625.56
2019-05-07T07:43:57.232Z,99621.89
2019-05-07T07:49:10.228Z,99614.30
2019-05-07T07:54:07.756Z,99610.61
2019-05-07T07:59:12.647Z,99606.92
2019-05-07T08:04:17.060Z,99604.95
2019-05-07T08:09:23.977Z,99595.38
2019-05-07T08:14:27.330Z,99593.30
2019-05-07T08:19:32.787Z,99594.12
2019-05-07T08:24:37.378Z,99589.80
2019-05-07T08:29:43.861Z,99573.39
2019-05-07T08:34:52.135Z,99580.30
2019-05-07T08:39:56.397Z,99575.68
2019-05-07T08:45:02.760Z,99572.35
2019-05-07T08:50:07.464Z,99568.19
2019-05-07T08:55:12.711Z,99561.16
2019-05-07T09:00:18.671Z,99557.58
2019-05-07T09:05:23.112Z,99553.90
2019-05-07T09:10:27.508Z,99536.88
2019-05-07T09:15:32.121Z,99531.78
2019-05-07T09:20:36.592Z,99527.49
2019-05-07T09:25:41.635Z,99517.09
2019-05-07T09:30:46.155Z,99514.28
2019-05-07T09:35:52.693Z,99510.49
2019-05-07T09:40:57.133Z,99491.89
2019-05-07T09:46:02.714Z,99490.31
2019-05-07T09:51:07.892Z,99483.84
2019-05-07T09:56:12.423Z,99483.70
2019-05-07T10:01:16.831Z,99469.80
2019-05-07T10:06:22.905Z,99479.50
2019-05-07T10:11:27.536Z,99467.41
2019-05-07T10:16:33.494Z,99450.89
2019-05-07T10:21:37.977Z,99459.44
2019-05-07T10:26:43.477Z,99440.22
2019-05-07T10:31:47.851Z,99430.13
2019-05-07T10:36:52.657Z,99418.48
2019-05-07T10:41:57.896Z,99416.80
2019-05-07T10:47:03.306Z,99412.63
2019-05-07T10:52:07.597Z,99402.80
2019-05-07T10:57:12.002Z,99396.93
2019-05-07T11:02:16.334Z,99389.22
2019-05-07T11:07:22.250Z,99393.89
2019-05-07T11:12:27.016Z,99391.41
2019-05-07T11:17:32.679Z,99386.14
2019-05-07T11:22:37.412Z,99389.31
2019-05-07T11:27:42.190Z,99378.12
2019-05-07T11:32:46.697Z,99366.94
2019-05-07T11:37:52.014Z,99373.64
2019-05-07T11:42:56.633Z,99360.16
2019-05-07T11:48:01.969Z,99348.75
2019-05-07T11:53:07.952Z,99317.61
2019-05-07T11:58:12.845Z,99309.30
2019-05-07T12:03:17.207Z,99309.30
2019-05-07T12:08:26.512Z,99300.60
2019-05-07T12:13:27.985Z,99295.86
2019-05-07T12:18:35.801Z,99291.56
2019-05-07T12:23:42.025Z,99279.20
2019-05-07T12:28:46.447Z,99271.23
2019-05-07T12:33:52.161Z,99261.30
2019-05-07T12:38:56.539Z,99261.30
2019-05-07T12:44:03.152Z,99248.67
2019-05-07T12:49:07.601Z,99230.41
2019-05-07T12:54:12.062Z,99230.41
2019-05-07T12:59:16.664Z,99224.41
2019-05-07T13:04:22.100Z,99224.41
2019-05-07T13:09:26.468Z,99217.54
2019-05-07T13:14:30.777Z,99216.43
2019-05-07T13:19:35.054Z,99205.52
2019-05-07T13:24:39.756Z,99204.36
2019-05-07T13:29:44.976Z,99201.09
2019-05-07T13:34:51.893Z,99178.27
2019-05-07T13:39:55.419Z,99160.08
2019-05-07T13:45:00.111Z,99155.89
2019-05-07T13:50:06.126Z,99155.89
2019-05-07T13:55:12.850Z,99150.13
2019-05-07T14:00:18.580Z,99143.62
2019-05-07T14:05:24.868Z,99134.44
2019-05-07T14:10:29.164Z,99124.91
2019-05-07T14:15:35.054Z,99125.14
2019-05-07T14:20:39.429Z,99121.23
2019-05-07T14:25:44.546Z,99110.33
2019-05-07T14:30:48.901Z,99092.58
2019-05-07T14:35:53.853Z,99075.22
2019-05-07T14:41:00.113Z,99069.91
2019-05-07T14:46:04.902Z,99069.91
2019-05-07T14:51:09.293Z,99046.95
2019-05-07T14:56:14.282Z,99038.56
2019-05-07T15:01:18.883Z,99035.67
2019-05-07T15:06:23.425Z,99030.63
2019-05-07T15:11:27.881Z,99024.43
2019-05-07T15:16:32.316Z,99012.12
2019-05-07T15:21:36.680Z,99016.25
2019-05-07T15:26:42.014Z,99013.12
2019-05-07T15:31:46.421Z,99002.91
2019-05-07T15:36:52.711Z,98986.04
2019-05-07T15:41:57.298Z,98974.70
2019-05-07T15:47:02.585Z,98967.89
2019-05-07T15:52:07.842Z,98941.89
2019-05-07T15:57:12.691Z,98931.70
2019-05-07T16:02:17.120Z,98922.88
2019-05-07T16:07:22.517Z,98916.70
2019-05-07T16:12:26.911Z,98912.57
2019-05-07T16:17:32.851Z,98903.44
2019-05-07T16:22:39.054Z,98904.11
2019-05-07T16:27:43.344Z,98897.75
2019-05-07T16:32:47.979Z,98897.20
2019-05-07T16:37:52.484Z,98890.67
2019-05-07T16:42:56.758Z,98872.08
2019-05-07T16:48:03.037Z,98859.23
2019-05-07T16:53:06.718Z,98845.24
2019-05-07T16:58:12.530Z,98832.80
2019-05-07T17:03:16.806Z,98826.95
2019-05-07T17:08:23.651Z,98820.72
2019-05-07T17:13:27.877Z,98807.93
2019-05-07T17:18:32.784Z,98799.34
2019-05-07T17:23:44.617Z,98780.66
2019-05-07T17:28:45.311Z,98771.52
2019-05-07T17:33:51.567Z,98773.06
2019-05-07T17:38:55.711Z,98764.22
2019-05-07T17:43:59.990Z,98754.72
2019-05-07T17:49:06.698Z,98744.00
2019-05-07T17:54:12.855Z,98737.78
2019-05-07T17:59:16.818Z,98725.36
2019-05-07T18:04:21.098Z,98718.14
2019-05-07T18:09:25.449Z,98717.14
2019-05-07T18:14:32.208Z,98708.88
2019-05-07T18:19:37.637Z,98703.40
2019-05-07T18:24:41.977Z,98690.30
2019-05-07T18:29:46.285Z,98671.05
2019-05-07T18:34:51.909Z,98666.27
2019-05-07T18:39:56.258Z,98654.52
2019-05-07T18:45:02.137Z,98623.96
2019-05-07T18:50:12.678Z,98617.34
2019-05-07T18:55:14.730Z,98604.84
2019-05-07T19:00:22.020Z,98597.98
2019-05-07T19:05:25.912Z,98597.51
2019-05-07T19:10:30.104Z,98593.41
2019-05-07T19:15:34.412Z,98582.73
2019-05-07T19:20:42.172Z,98568.78
2019-05-07T19:25:47.438Z,98561.70
2019-05-07T19:30:52.853Z,98532.50
2019-05-07T19:35:59.038Z,98519.64
2019-05-07T19:41:04.618Z,98500.30
2019-05-07T19:46:08.792Z,98489.59
2019-05-07T19:51:12.812Z,98467.70
2019-05-07T19:56:17.051Z,98433.75
2019-05-07T20:01:22.792Z,98432.05
2019-05-07T20:06:27.038Z,98428.16
2019-05-07T20:11:32.668Z,98411.89
2019-05-07T20:16:37.151Z,98396.78
2019-05-07T20:21:42.613Z,98410.32
2019-05-07T20:26:47.851Z,98414.01
2019-05-07T20:31:53.523Z,98378.53
2019-05-07T20:37:02.056Z,98372.27
2019-05-07T20:42:08.165Z,98365.03
2019-05-07T20:47:12.812Z,98346.80
2019-05-07T20:52:17.352Z,98345.11
2019-05-07T20:57:23.178Z,98318.25
2019-05-07T21:02:41.688Z,98318.02
2019-05-07T21:07:34.798Z,98310.67
2019-05-07T21:12:38.951Z,98308.87
2019-05-07T21:17:45.839Z,98299.23
2019-05-07T21:22:51.908Z,98287.45
2019-05-07T21:27:58.424Z,98269.51
2019-05-07T21:33:02.611Z,98252.59
2019-05-07T21:38:07.299Z,98231.92
2019-05-07T21:43:14.180Z,98221.72
2019-05-07T21:48:18.251Z,98205.88
2019-05-07T21:53:22.944Z,98186.09
2019-05-07T21:58:27.303Z,98160.44
2019-05-07T22:03:32.432Z,98147.34
2019-05-07T22:08:37.272Z,98138.07
2019-05-07T22:13:43.485Z,98113.59
2019-05-07T22:18:48.863Z,98100.33
2019-05-07T22:23:53.031Z,98091.20
2019-05-07T22:28:58.511Z,98056.11
2019-05-07T22:34:03.143Z,98040.53
2019-05-07T22:39:07.810Z,98015.98
2019-05-07T22:44:12.123Z,98006.92
2019-05-07T22:49:16.457Z,97988.63
2019-05-07T22:54:22.398Z,97974.39
2019-05-07T22:59:26.263Z,97962.12
2019-05-07T23:04:32.447Z,97949.50
2019-05-07T23:09:36.677Z,97933.05
2019-05-07T23:14:41.211Z,97917.60
2019-05-07T23:19:45.291Z,97920.75
2019-05-07T23:24:51.873Z,97899.98
2019-05-07T23:29:55.779Z,97893.75
2019-05-07T23:35:02.503Z,97876.25
2019-05-07T23:40:08.243Z,97867.92
2019-05-07T23:45:13.722Z,97851.05
2019-05-07T23:50:17.891Z,97837.66
2019-05-07T23:55:23.783Z,97825.75
